Observations for SIOUX FALLS FOSS, SD (FSD)

KFSD 171856Z 09006KT 10SM FEW045 FEW250 28/17 A3012 RMK AO2 SLP192 T02780167
KFSD 171756Z 00000KT 10SM FEW045 FEW250 27/16 A3013 RMK AO2 SLP197 T02720156 10278 20172 55000  
KFSD 171656Z 16006KT 10SM FEW250 27/17 A3014 RMK AO2 SLP198 T02670172   
KFSD 171556Z 13005KT 10SM FEW250 25/17 A3013 RMK AO2 SLP195 T02500172   
KFSD 171456Z 10007KT 10SM FEW250 24/16 A3013 RMK AO2 SLP197 T02390156 50005 
KFSD 171356Z 11005KT 10SM SCT250 22/17 A3014 RMK AO2 SLP199 T02170167   
KFSD 171256Z 00000KT 10SM BKN250 19/17 A3012 RMK AO2 SLP193 T01940167   
KFSD 171156Z 01004KT 10SM FEW150 BKN250 17/16 A3012 RMK AO2 SLP191 T01720156 10189 20161 51011  
KFSD 171056Z 03005KT 10SM BKN250 17/16 A3010 RMK AO2 SLP186 T01670156   
KFSD 170956Z 00000KT 10SM BKN250 18/17 A3010 RMK AO2 SLP185 T01780167   
KFSD 170856Z AUTO 00000KT 10SM CLR 18/17 A3008 RMK AO2 SLP179 T01780167 58007   
KFSD 170756Z AUTO 02003KT 10SM CLR 18/17 A3010 RMK AO2 SLP184 T01780167 
KFSD 170656Z AUTO 02003KT 10SM CLR 18/17 A3009 RMK AO2 SLP184 T01780167 
KFSD 170556Z AUTO 00000KT 10SM CLR 18/16 A3011 RMK AO2 SLP188 T01830161 10272 20183 402890144 51011 
KFSD 170456Z 00000KT 10SM CLR 19/16 A3010 RMK AO2 SLP187 LAST T01890161 
KFSD 170356Z 00000KT 10SM SCT250 20/15 A3009 RMK AO2 SLP184 T02000150   
KFSD 170256Z 00000KT 10SM SCT250 22/15 A3007 RMK AO2 SLP177 T02170150 53008 
KFSD 170156Z 00000KT 10SM FEW120 SCT250 24/13 A3006 RMK AO2 SLP171 T02440128
KFSD 170056Z 00000KT 10SM FEW120 SCT250 27/13 A3006 RMK AO2 SLP171 T02670128
KFSD 162356Z 09004KT 10SM FEW250 28/13 A3005 RMK AO2 SLP168 T02780133 10289 20256 58013 
KFSD 162256Z 17003KT 10SM FEW250 28/13 A3006 RMK AO2 SLP173 T02830128   
KFSD 162156Z 00000KT 10SM FEW250 28/13 A3008 RMK AO2 SLP178 T02780128   
KFSD 162056Z 20005KT 10SM FEW130 FEW250 28/12 A3009 RMK AO2 SLP182 T02830117 58008  
KFSD 161956Z VRB04KT 10SM FEW130 SCT250 27/13 A3010 RMK AO2 SLP185 T02720133
KFSD 161856Z 00000KT 10SM FEW130 SCT250 27/13 A3011 RMK AO2 SLP188 T02670128